createdAt,value
2018-10-17T00:02:00.429Z,7.57
2018-10-17T00:04:29.421Z,9.33
2018-10-17T00:06:58.878Z,8.30
2018-10-17T00:09:27.994Z,8.63
2018-10-17T00:11:57.005Z,8.60
2018-10-17T00:14:26.134Z,8.63
2018-10-17T00:16:55.085Z,9.00
2018-10-17T00:19:24.229Z,9.47
2018-10-17T00:21:53.298Z,8.73
2018-10-17T00:24:22.458Z,9.90
2018-10-17T00:26:51.458Z,9.23
2018-10-17T00:29:21.298Z,9.43
2018-10-17T00:31:51.299Z,9.27
2018-10-17T00:34:20.539Z,9.23
2018-10-17T00:36:49.835Z,9.87
2018-10-17T00:39:19.228Z,9.93
2018-10-17T00:41:48.552Z,9.73
2018-10-17T00:44:17.988Z,9.90
2018-10-17T00:46:47.007Z,9.67
2018-10-17T00:49:16.157Z,9.70
2018-10-17T00:51:45.191Z,11.07
2018-10-17T00:54:14.168Z,10.20
2018-10-17T00:56:43.192Z,9.77
2018-10-17T00:59:13.673Z,10.33
2018-10-17T01:01:43.073Z,9.87
2018-10-17T01:04:12.087Z,10.73
2018-10-17T01:06:41.202Z,10.23
2018-10-17T01:09:11.705Z,9.67
2018-10-17T01:11:41.020Z,9.63
2018-10-17T01:14:11.307Z,9.63
2018-10-17T01:16:40.377Z,10.60
2018-10-17T01:19:09.411Z,10.30
2018-10-17T01:21:38.873Z,10.23
2018-10-17T01:24:07.733Z,8.97
2018-10-17T01:26:37.677Z,10.17
2018-10-17T01:29:07.957Z,10.10
2018-10-17T01:31:37.017Z,9.70
2018-10-17T01:34:07.047Z,10.17
2018-10-17T01:36:36.377Z,9.37
2018-10-17T01:39:08.067Z,9.90
2018-10-17T01:41:37.269Z,10.20
2018-10-17T01:44:07.637Z,10.70
2018-10-17T01:46:36.667Z,10.87
2018-10-17T01:49:06.561Z,9.83
2018-10-17T01:51:35.549Z,10.93
2018-10-17T01:54:05.019Z,10.17
2018-10-17T01:56:34.117Z,9.03
2018-10-17T01:59:03.259Z,9.80
2018-10-17T02:01:32.325Z,9.47
2018-10-17T02:04:01.655Z,9.63
2018-10-17T02:06:32.545Z,11.27
2018-10-17T02:09:02.041Z,10.13
2018-10-17T02:11:30.954Z,10.33
2018-10-17T02:13:59.932Z,10.13
2018-10-17T02:16:29.226Z,9.67
2018-10-17T02:18:58.302Z,9.93
2018-10-17T02:21:27.261Z,9.97
2018-10-17T02:23:56.613Z,10.43
2018-10-17T02:26:25.553Z,9.87
2018-10-17T02:28:54.547Z,9.40
2018-10-17T02:31:23.649Z,8.70
2018-10-17T02:33:52.563Z,9.83
2018-10-17T02:36:25.522Z,9.70
2018-10-17T02:38:54.877Z,11.10
2018-10-17T02:41:25.039Z,10.30
2018-10-17T02:43:54.974Z,10.17
2018-10-17T02:46:23.906Z,10.00
2018-10-17T02:48:52.844Z,9.87
2018-10-17T02:51:22.155Z,11.10
2018-10-17T02:53:51.098Z,9.77
2018-10-17T02:56:20.238Z,10.13
2018-10-17T02:58:50.643Z,10.03
2018-10-17T03:01:21.067Z,9.57
2018-10-17T03:03:50.523Z,9.23
2018-10-17T03:06:20.271Z,10.57
2018-10-17T03:08:49.619Z,10.33
2018-10-17T03:11:19.319Z,9.83
2018-10-17T03:13:48.796Z,9.20
2018-10-17T03:16:18.022Z,9.93
2018-10-17T03:18:47.027Z,10.00
2018-10-17T03:21:16.539Z,9.67
2018-10-17T03:23:45.546Z,9.73
2018-10-17T03:26:14.507Z,10.30
2018-10-17T03:28:43.558Z,9.97
2018-10-17T03:31:12.595Z,10.40
2018-10-17T03:33:41.595Z,10.27
2018-10-17T03:36:10.934Z,10.37
2018-10-17T03:38:39.893Z,10.37
2018-10-17T03:41:08.958Z,10.30
2018-10-17T03:43:38.104Z,10.47
2018-10-17T03:46:07.846Z,9.93
2018-10-17T03:48:36.866Z,9.37
2018-10-17T03:51:06.933Z,9.53
2018-10-17T03:53:35.911Z,9.87
2018-10-17T03:56:06.173Z,10.40
2018-10-17T03:58:35.507Z,10.67
2018-10-17T04:01:05.012Z,10.13
2018-10-17T04:03:33.954Z,10.67
2018-10-17T04:06:02.996Z,9.80
2018-10-17T04:08:32.019Z,11.13
2018-10-17T04:11:01.207Z,10.37
2018-10-17T04:13:30.536Z,10.53
2018-10-17T04:15:59.545Z,10.87
2018-10-17T04:18:28.603Z,10.57
2018-10-17T04:20:57.905Z,10.93
2018-10-17T04:23:26.996Z,10.67
2018-10-17T04:25:56.089Z,10.30
2018-10-17T04:28:25.418Z,10.87
2018-10-17T04:30:54.551Z,11.53
2018-10-17T04:33:23.544Z,9.73
2018-10-17T04:35:52.830Z,10.63
2018-10-17T04:38:21.919Z,11.13
2018-10-17T04:40:52.275Z,11.43
2018-10-17T04:43:21.608Z,10.80
2018-10-17T04:45:51.690Z,10.73
2018-10-17T04:48:21.420Z,10.47
2018-10-17T04:50:50.925Z,10.93
2018-10-17T04:53:20.386Z,11.20
2018-10-17T04:55:49.798Z,11.07
2018-10-17T04:58:20.567Z,9.87
2018-10-17T05:00:49.956Z,10.63
2018-10-17T05:03:19.715Z,10.23
2018-10-17T05:05:49.626Z,10.73
2018-10-17T05:08:18.922Z,11.30
2018-10-17T05:10:48.317Z,10.73
2018-10-17T05:13:18.026Z,10.40
2018-10-17T05:15:47.014Z,10.70
2018-10-17T05:18:16.685Z,10.90
2018-10-17T05:20:46.226Z,10.40
2018-10-17T05:23:15.432Z,10.63
2018-10-17T05:25:44.287Z,10.90
2018-10-17T05:28:13.566Z,10.97
2018-10-17T05:30:42.535Z,10.17
2018-10-17T05:33:11.548Z,11.10
2018-10-17T05:35:40.589Z,11.70
2018-10-17T05:38:09.657Z,11.17
2018-10-17T05:40:38.650Z,11.97
2018-10-17T05:43:08.817Z,11.17
2018-10-17T05:45:37.686Z,11.33
2018-10-17T05:48:07.230Z,11.20
2018-10-17T05:50:36.542Z,11.50
2018-10-17T05:53:06.644Z,11.40
2018-10-17T05:55:35.679Z,10.20
2018-10-17T05:58:05.578Z,11.97
2018-10-17T06:00:34.797Z,11.43
2018-10-17T06:03:03.813Z,11.80
2018-10-17T06:05:32.914Z,11.27
2018-10-17T06:08:01.922Z,11.30
2018-10-17T06:10:31.742Z,11.03
2018-10-17T06:13:01.959Z,10.90
2018-10-17T06:15:31.084Z,11.50
2018-10-17T06:18:00.065Z,10.57
2018-10-17T06:20:29.363Z,10.80
2018-10-17T06:22:58.900Z,12.30
2018-10-17T06:25:27.958Z,11.03
2018-10-17T06:27:57.163Z,10.37
2018-10-17T06:30:26.213Z,11.70
2018-10-17T06:32:55.212Z,11.67
2018-10-17T06:35:24.347Z,11.53
2018-10-17T06:37:53.496Z,11.17
2018-10-17T06:40:22.621Z,11.00
2018-10-17T06:42:51.987Z,12.37
2018-10-17T06:45:21.041Z,11.70
2018-10-17T06:47:51.117Z,11.17
2018-10-17T06:50:20.788Z,11.30
2018-10-17T06:52:50.120Z,11.93
2018-10-17T06:55:19.483Z,11.30
2018-10-17T06:57:49.098Z,11.13
2018-10-17T07:00:18.541Z,11.27
2018-10-17T07:02:47.966Z,11.30
2018-10-17T07:05:17.601Z,12.03
2018-10-17T07:07:46.756Z,10.93
2018-10-17T07:10:15.798Z,11.67
2018-10-17T07:12:44.928Z,10.43
2018-10-17T07:15:14.226Z,12.20
2018-10-17T07:17:43.244Z,11.77
2018-10-17T07:20:12.826Z,11.37
2018-10-17T07:22:41.994Z,11.27
2018-10-17T07:25:11.196Z,11.57
2018-10-17T07:27:40.409Z,12.40
2018-10-17T07:30:10.161Z,12.33
2018-10-17T07:32:40.023Z,11.90
2018-10-17T07:35:11.052Z,10.90
2018-10-17T07:37:40.260Z,11.77
2018-10-17T07:40:10.545Z,11.10
2018-10-17T07:42:39.750Z,11.23
2018-10-17T07:45:09.984Z,11.53
2018-10-17T07:47:38.894Z,11.37
2018-10-17T07:50:09.697Z,11.30
2018-10-17T07:52:38.983Z,12.10
2018-10-17T07:55:11.291Z,12.87
2018-10-17T07:57:40.326Z,10.83
2018-10-17T08:00:11.760Z,11.93
2018-10-17T08:02:41.058Z,12.50
2018-10-17T08:05:10.482Z,11.27
2018-10-17T08:07:39.497Z,11.63
2018-10-17T08:10:11.413Z,12.30
2018-10-17T08:12:40.697Z,12.70
2018-10-17T08:15:10.632Z,11.67
2018-10-17T08:17:39.732Z,12.40
2018-10-17T08:20:10.342Z,11.53
2018-10-17T08:22:39.562Z,12.13
2018-10-17T08:25:10.585Z,11.97
2018-10-17T08:27:40.524Z,13.27
2018-10-17T08:30:12.492Z,11.97
2018-10-17T08:32:42.198Z,11.03
2018-10-17T08:35:11.187Z,12.00
2018-10-17T08:37:40.986Z,11.73
2018-10-17T08:40:10.202Z,12.63
2018-10-17T08:42:39.180Z,11.20
2018-10-17T08:45:08.959Z,10.03
2018-10-17T08:47:38.120Z,10.87
2018-10-17T08:50:07.895Z,11.10
2018-10-17T08:52:36.883Z,10.77
2018-10-17T08:55:06.637Z,11.43
2018-10-17T08:57:35.988Z,11.33
2018-10-17T09:00:05.933Z,10.97
2018-10-17T09:02:35.307Z,9.97
2018-10-17T09:05:04.416Z,11.07
2018-10-17T09:07:33.581Z,11.87
2018-10-17T09:10:02.574Z,10.33
2018-10-17T09:12:31.569Z,9.80
2018-10-17T09:15:00.757Z,9.73
2018-10-17T09:17:29.797Z,9.40
2018-10-17T09:19:58.933Z,11.10
2018-10-17T09:22:28.849Z,11.30
2018-10-17T09:24:59.351Z,9.70
2018-10-17T09:27:29.359Z,9.30
2018-10-17T09:29:58.429Z,9.23
2018-10-17T09:32:27.517Z,12.47
2018-10-17T09:34:56.754Z,10.37
2018-10-17T09:37:25.755Z,9.47
2018-10-17T09:39:54.753Z,9.23
2018-10-17T09:42:25.441Z,8.87
2018-10-17T09:44:54.521Z,9.30
2018-10-17T09:47:23.448Z,9.60
2018-10-17T09:49:52.638Z,9.17
2018-10-17T09:52:21.636Z,8.73
2018-10-17T09:54:51.169Z,8.70
2018-10-17T09:57:20.601Z,7.93
2018-10-17T09:59:49.870Z,8.83
2018-10-17T10:02:19.532Z,7.77
2018-10-17T10:04:48.909Z,8.93
2018-10-17T10:07:18.388Z,8.43
2018-10-17T10:09:47.633Z,8.43
2018-10-17T10:12:16.794Z,7.77
2018-10-17T10:14:45.843Z,8.47
2018-10-17T10:17:15.014Z,7.10
2018-10-17T10:19:44.169Z,8.20
2018-10-17T10:22:13.222Z,8.03
2018-10-17T10:24:42.382Z,7.83
2018-10-17T10:27:11.452Z,8.10
2018-10-17T10:29:40.401Z,7.17
2018-10-17T10:32:09.797Z,7.20
2018-10-17T10:34:38.919Z,7.80
2018-10-17T10:37:08.213Z,7.13
2018-10-17T10:39:37.383Z,7.10
2018-10-17T10:42:07.543Z,7.43
2018-10-17T10:44:36.512Z,6.93
2018-10-17T10:47:05.955Z,7.50
2018-10-17T10:49:35.134Z,6.43
2018-10-17T10:52:04.210Z,6.70
2018-10-17T10:54:34.215Z,6.90
2018-10-17T10:57:05.381Z,7.13
2018-10-17T10:59:34.928Z,6.30
2018-10-17T11:02:03.910Z,6.73
2018-10-17T11:04:33.067Z,7.30
2018-10-17T11:07:03.799Z,6.73
2018-10-17T11:09:32.944Z,6.20
2018-10-17T11:12:01.975Z,6.83
2018-10-17T11:14:31.578Z,7.10
2018-10-17T11:17:00.554Z,7.13
2018-10-17T11:19:29.650Z,6.47
2018-10-17T11:21:58.722Z,7.87
2018-10-17T11:24:27.692Z,6.43
2018-10-17T11:26:57.632Z,6.73
2018-10-17T11:29:26.893Z,6.60
2018-10-17T11:31:56.202Z,6.43
2018-10-17T11:34:25.224Z,7.20
2018-10-17T11:36:54.198Z,7.03
2018-10-17T11:39:23.155Z,6.43
2018-10-17T11:41:53.225Z,7.17
2018-10-17T11:44:22.302Z,6.80
2018-10-17T11:46:51.357Z,6.83
2018-10-17T11:49:21.117Z,6.93
2018-10-17T11:51:50.826Z,6.90
2018-10-17T11:54:20.492Z,5.83
2018-10-17T11:56:49.931Z,7.17
2018-10-17T11:59:19.382Z,7.27
2018-10-17T12:01:48.457Z,5.80
2018-10-17T12:04:17.826Z,7.17
2018-10-17T12:06:48.812Z,7.07
2018-10-17T12:09:18.005Z,6.37
2018-10-17T12:11:48.412Z,7.20
2018-10-17T12:14:17.488Z,6.50
2018-10-17T12:16:46.713Z,6.60
2018-10-17T12:19:15.950Z,6.97
2018-10-17T12:21:44.822Z,6.13
2018-10-17T12:24:14.016Z,6.80
2018-10-17T12:26:43.212Z,7.57
2018-10-17T12:29:12.280Z,6.50
2018-10-17T12:31:41.404Z,6.93
2018-10-17T12:34:11.457Z,7.20
2018-10-17T12:36:40.524Z,6.90
2018-10-17T12:39:12.597Z,6.37
2018-10-17T12:41:42.128Z,6.73
2018-10-17T12:44:12.220Z,6.70
2018-10-17T12:46:41.280Z,6.73
2018-10-17T12:49:12.537Z,6.83
2018-10-17T12:51:41.421Z,6.43
2018-10-17T12:54:12.329Z,6.97
2018-10-17T12:56:41.333Z,7.40
2018-10-17T12:59:10.890Z,6.80
2018-10-17T13:01:40.453Z,7.10
2018-10-17T13:04:11.726Z,6.57
2018-10-17T13:06:42.359Z,6.07
2018-10-17T13:09:13.319Z,7.17
2018-10-17T13:11:43.540Z,6.63
2018-10-17T13:14:12.516Z,7.33
2018-10-17T13:16:41.612Z,6.83
2018-10-17T13:19:12.098Z,7.83
2018-10-17T13:21:41.027Z,6.90
2018-10-17T13:24:13.031Z,6.30
2018-10-17T13:26:42.088Z,7.07
2018-10-17T13:29:13.639Z,6.70
2018-10-17T13:31:42.730Z,7.17
2018-10-17T13:34:12.262Z,6.93
2018-10-17T13:36:41.390Z,6.83
2018-10-17T13:39:12.674Z,7.87
2018-10-17T13:41:41.621Z,6.90
2018-10-17T13:44:11.457Z,6.83
2018-10-17T13:46:40.552Z,6.50
2018-10-17T13:49:11.006Z,6.13
2018-10-17T13:51:40.105Z,7.10
2018-10-17T13:54:09.400Z,5.70
2018-10-17T13:56:38.334Z,6.40
2018-10-17T13:59:07.550Z,7.10
2018-10-17T14:01:36.643Z,5.93
2018-10-17T14:04:05.914Z,6.47
2018-10-17T14:06:35.204Z,6.70
2018-10-17T14:09:06.993Z,6.33
2018-10-17T14:11:36.023Z,6.73
2018-10-17T14:14:05.381Z,6.47
2018-10-17T14:16:34.561Z,5.80
2018-10-17T14:19:03.888Z,6.10
2018-10-17T14:21:32.841Z,6.07
2018-10-17T14:24:02.076Z,5.40
2018-10-17T14:26:31.148Z,6.43
2018-10-17T14:29:00.135Z,6.37
2018-10-17T14:31:29.386Z,6.73
2018-10-17T14:33:58.570Z,6.50
2018-10-17T14:36:27.724Z,6.03
2018-10-17T14:38:57.558Z,5.87
2018-10-17T14:41:26.525Z,6.33
2018-10-17T14:43:55.497Z,6.00
2018-10-17T14:46:24.828Z,6.50
2018-10-17T14:48:54.115Z,5.37
2018-10-17T14:51:23.055Z,6.00
2018-10-17T14:53:52.216Z,6.13
2018-10-17T14:56:21.523Z,5.70
2018-10-17T14:58:51.686Z,5.97
2018-10-17T15:01:21.896Z,6.43
2018-10-17T15:03:50.917Z,6.50
2018-10-17T15:06:20.353Z,6.87
2018-10-17T15:08:50.019Z,6.27
2018-10-17T15:11:19.758Z,6.73
2018-10-17T15:13:49.058Z,6.57
2018-10-17T15:16:20.560Z,6.30
2018-10-17T15:18:53.458Z,6.37
2018-10-17T15:21:22.624Z,6.37
2018-10-17T15:23:51.807Z,6.97
2018-10-17T15:26:20.969Z,7.07
2018-10-17T15:28:50.450Z,7.03
2018-10-17T15:31:19.888Z,7.30
2018-10-17T15:33:49.307Z,6.47
2018-10-17T15:36:18.783Z,6.70
2018-10-17T15:38:47.876Z,7.17
2018-10-17T15:41:16.951Z,7.57
2018-10-17T15:43:46.426Z,7.17
2018-10-17T15:46:15.397Z,7.90
2018-10-17T15:48:44.386Z,6.40
2018-10-17T15:51:13.590Z,7.37
2018-10-17T15:53:42.646Z,7.30
2018-10-17T15:56:11.947Z,7.00
2018-10-17T15:58:41.058Z,7.23
2018-10-17T16:01:10.457Z,7.00
2018-10-17T16:03:39.716Z,6.73
2018-10-17T16:06:10.131Z,6.50
2018-10-17T16:08:39.157Z,7.30
2018-10-17T16:11:09.440Z,8.10
2018-10-17T16:13:38.646Z,7.07
2018-10-17T16:16:08.261Z,6.60
2018-10-17T16:18:37.690Z,6.50
2018-10-17T16:21:06.936Z,7.03
2018-10-17T16:23:36.176Z,6.53
2018-10-17T16:26:05.615Z,7.37
2018-10-17T16:28:34.734Z,7.33
2018-10-17T16:31:03.760Z,6.67
2018-10-17T16:33:32.958Z,6.90
2018-10-17T16:36:02.471Z,7.40
2018-10-17T16:38:31.475Z,7.27
2018-10-17T16:41:00.890Z,7.37
2018-10-17T16:43:30.146Z,7.03
2018-10-17T16:45:59.326Z,7.10
2018-10-17T16:48:28.488Z,6.30
2018-10-17T16:50:58.510Z,6.37
2018-10-17T16:53:27.571Z,5.67
2018-10-17T16:55:56.786Z,6.57
2018-10-17T16:58:26.229Z,6.43
2018-10-17T17:00:57.481Z,6.03
2018-10-17T17:03:26.860Z,6.40
2018-10-17T17:05:56.543Z,6.27
2018-10-17T17:08:25.796Z,5.93
2018-10-17T17:10:54.760Z,6.13
2018-10-17T17:13:24.115Z,6.20
2018-10-17T17:15:53.974Z,6.50
2018-10-17T17:18:23.772Z,6.87
2018-10-17T17:20:52.992Z,5.73
2018-10-17T17:23:23.642Z,6.23
2018-10-17T17:25:52.880Z,6.30
2018-10-17T17:28:27.763Z,6.43
2018-10-17T17:30:56.947Z,6.57
2018-10-17T17:33:27.183Z,5.73
2018-10-17T17:35:59.330Z,6.13
2018-10-17T17:38:31.450Z,6.23
2018-10-17T17:41:02.716Z,6.13
2018-10-17T17:43:33.848Z,5.60
2018-10-17T17:46:06.640Z,5.83
2018-10-17T17:48:36.864Z,5.50
2018-10-17T17:51:06.907Z,5.60
2018-10-17T17:53:40.190Z,5.53
2018-10-17T17:56:14.141Z,6.27
2018-10-17T17:58:44.085Z,6.17
2018-10-17T18:01:16.050Z,6.03
2018-10-17T18:03:45.862Z,5.20
2018-10-17T18:06:14.917Z,5.83
2018-10-17T18:08:44.000Z,6.40
2018-10-17T18:11:19.823Z,5.70
2018-10-17T18:13:50.888Z,6.03
2018-10-17T18:16:23.133Z,6.30
2018-10-17T18:18:52.670Z,5.50
2018-10-17T18:21:22.412Z,5.80
2018-10-17T18:23:52.573Z,5.43
2018-10-17T18:26:24.151Z,5.80
2018-10-17T18:28:54.183Z,5.97
2018-10-17T18:31:23.212Z,6.10
2018-10-17T18:33:52.415Z,5.03
2018-10-17T18:36:21.775Z,5.47
2018-10-17T18:38:51.291Z,5.17
2018-10-17T18:41:21.841Z,5.73
2018-10-17T18:43:51.229Z,5.70
2018-10-17T18:46:20.902Z,5.40
2018-10-17T18:48:50.073Z,5.27
2018-10-17T18:51:19.607Z,5.67
2018-10-17T18:53:48.771Z,6.10
2018-10-17T18:56:17.904Z,5.50
2018-10-17T18:58:47.391Z,5.37
2018-10-17T19:01:16.398Z,5.87
2018-10-17T19:03:46.175Z,6.10
2018-10-17T19:06:15.473Z,5.60
2018-10-17T19:08:44.441Z,5.63
2018-10-17T19:11:13.757Z,5.70
2018-10-17T19:13:43.079Z,6.20
2018-10-17T19:16:12.254Z,5.43
2018-10-17T19:18:41.282Z,6.23
2018-10-17T19:21:11.320Z,5.87
2018-10-17T19:23:40.325Z,6.23
2018-10-17T19:26:09.793Z,5.97
2018-10-17T19:28:39.173Z,5.87
2018-10-17T19:31:08.760Z,6.50
2018-10-17T19:33:37.759Z,5.83
2018-10-17T19:36:07.183Z,5.87
2018-10-17T19:38:36.224Z,5.87
2018-10-17T19:41:05.335Z,5.97
2018-10-17T19:43:35.547Z,6.07
2018-10-17T19:46:04.971Z,5.53
2018-10-17T19:48:34.068Z,6.70
2018-10-17T19:51:03.638Z,6.43
2018-10-17T19:53:32.908Z,5.77
2018-10-17T19:56:02.323Z,6.17
2018-10-17T19:58:31.376Z,5.80
2018-10-17T20:01:00.365Z,5.77
2018-10-17T20:03:29.378Z,5.73
2018-10-17T20:05:58.524Z,5.63
2018-10-17T20:08:27.521Z,5.80
2018-10-17T20:10:56.479Z,5.27
2018-10-17T20:13:25.535Z,5.90
2018-10-17T20:15:54.470Z,5.70
2018-10-17T20:18:23.681Z,5.73
2018-10-17T20:20:52.837Z,5.53
2018-10-17T20:23:21.753Z,6.57
2018-10-17T20:25:50.898Z,6.00
2018-10-17T20:28:20.484Z,6.27
2018-10-17T20:30:50.429Z,5.93
2018-10-17T20:33:19.665Z,5.33
2018-10-17T20:35:49.148Z,5.27
2018-10-17T20:38:18.447Z,6.60
2018-10-17T20:40:47.781Z,6.43
2018-10-17T20:43:17.010Z,6.17
2018-10-17T20:45:46.311Z,5.90
2018-10-17T20:48:15.317Z,5.80
2018-10-17T20:50:44.944Z,5.83
2018-10-17T20:53:13.896Z,5.87
2018-10-17T20:55:42.822Z,5.47
2018-10-17T20:58:12.089Z,5.73
2018-10-17T21:00:41.189Z,5.90
2018-10-17T21:03:10.467Z,6.23
2018-10-17T21:05:39.689Z,5.40
2018-10-17T21:08:09.858Z,5.70
2018-10-17T21:10:38.905Z,5.77
2018-10-17T21:13:08.683Z,6.13
2018-10-17T21:15:37.683Z,6.00
2018-10-17T21:18:06.697Z,5.83
2018-10-17T21:20:35.825Z,6.77
2018-10-17T21:23:04.839Z,6.17
2018-10-17T21:25:33.866Z,6.30
2018-10-17T21:28:03.264Z,5.43
2018-10-17T21:30:32.201Z,5.90
2018-10-17T21:33:01.225Z,6.40
2018-10-17T21:35:30.300Z,6.07
2018-10-17T21:37:59.318Z,6.17
2018-10-17T21:40:28.333Z,6.37
2018-10-17T21:42:57.482Z,5.93
2018-10-17T21:45:26.636Z,6.50
2018-10-17T21:47:55.680Z,7.20
2018-10-17T21:50:24.830Z,6.40
2018-10-17T21:52:53.810Z,6.60
2018-10-17T21:55:22.814Z,7.30
2018-10-17T21:57:52.092Z,7.00
2018-10-17T22:00:21.042Z,6.60
2018-10-17T22:02:50.641Z,6.47
2018-10-17T22:05:20.028Z,6.57
2018-10-17T22:07:49.318Z,6.63
2018-10-17T22:10:18.378Z,7.23
2018-10-17T22:12:48.897Z,6.30
2018-10-17T22:15:17.990Z,6.50
2018-10-17T22:17:46.932Z,6.67
2018-10-17T22:20:16.090Z,7.60
2018-10-17T22:22:50.117Z,7.17
2018-10-17T22:25:20.623Z,7.43
2018-10-17T22:27:50.151Z,6.63
2018-10-17T22:30:20.377Z,8.00
2018-10-17T22:32:49.870Z,7.50
2018-10-17T22:35:19.117Z,7.93
2018-10-17T22:37:48.521Z,8.77
2018-10-17T22:40:18.679Z,7.90
2018-10-17T22:42:47.980Z,8.00
2018-10-17T22:45:18.429Z,8.17
2018-10-17T22:47:48.094Z,9.03
2018-10-17T22:50:17.115Z,8.50
2018-10-17T22:53:03.228Z,8.27
2018-10-17T22:55:32.516Z,7.97
2018-10-17T22:58:01.513Z,8.23
2018-10-17T23:00:30.558Z,8.47
2018-10-17T23:02:59.917Z,7.93
2018-10-17T23:05:29.106Z,8.33
2018-10-17T23:07:58.188Z,8.10
2018-10-17T23:10:27.469Z,8.90
2018-10-17T23:12:56.791Z,8.57
2018-10-17T23:15:26.011Z,7.83
2018-10-17T23:17:55.405Z,7.70
2018-10-17T23:20:24.335Z,8.67
2018-10-17T23:22:53.571Z,9.23
2018-10-17T23:25:22.783Z,7.83
2018-10-17T23:27:51.861Z,9.43
2018-10-17T23:30:21.202Z,8.83
2018-10-17T23:32:50.840Z,8.40
2018-10-17T23:35:20.457Z,9.27
2018-10-17T23:37:50.011Z,9.00
2018-10-17T23:40:19.620Z,9.10
2018-10-17T23:42:49.997Z,7.97
2018-10-17T23:45:19.910Z,10.00
2018-10-17T23:47:51.091Z,9.00
2018-10-17T23:50:21.525Z,9.20
2018-10-17T23:52:50.832Z,9.53
2018-10-17T23:55:20.210Z,9.87
2018-10-17T23:57:51.279Z,9.70
